Time;durP1;ratioP1;P1;durP2;ratioP2;P2;SDS_P1;SDS_P2;PMS_P1;PMS_P2;Temp;Humidity;BMP_temperature;BMP_pressure;BME280_temperature;BME280_humidity;BME280_pressure;Samples;Min_cycle;Max_cycle;Signal;HPM_P1;HPM_P2
2023/01/06 00:00:16;;;;;;;73.70;24.83;;;;;;;-145.18;100.00;60484.78;5051850;28;20036;-62
2023/01/06 00:02:41;;;;;;;80.70;26.70;;;;;;;-145.18;100.00;60484.78;5050667;28;20035;-62
2023/01/06 00:05:07;;;;;;;86.13;26.97;;;;;;;-145.18;100.00;60484.78;5051578;28;20393;-62
2023/01/06 00:07:33;;;;;;;73.50;24.13;;;;;;;-145.18;100.00;60484.78;5050185;28;20037;-62
2023/01/06 00:09:58;;;;;;;86.90;26.20;;;;;;;-145.18;100.00;60484.78;5051924;28;20029;-62
2023/01/06 00:12:25;;;;;;;77.87;27.07;;;;;;;-145.18;100.00;60484.78;5051765;28;20543;-62
2023/01/06 00:14:51;;;;;;;82.60;25.50;;;;;;;-145.18;100.00;60484.78;5051746;28;20020;-61
2023/01/06 00:17:17;;;;;;;77.63;26.87;;;;;;;-145.18;100.00;60484.78;5050770;28;20052;-61
2023/01/06 00:19:42;;;;;;;87.30;27.23;;;;;;;-145.18;100.00;60484.78;5051635;28;20037;-62
2023/01/06 00:22:07;;;;;;;78.73;27.13;;;;;;;-145.18;100.00;60484.78;5049720;28;20029;-62
2023/01/06 00:24:33;;;;;;;81.10;26.83;;;;;;;-145.18;100.00;60484.78;5051930;28;20106;-62
2023/01/06 00:26:59;;;;;;;77.83;26.80;;;;;;;-145.18;100.00;60484.78;5051553;28;20481;-61
2023/01/06 00:29:24;;;;;;;74.00;24.97;;;;;;;-145.18;100.00;60484.78;5049976;28;20035;-61
2023/01/06 00:31:50;;;;;;;81.27;27.23;;;;;;;-145.18;100.00;60484.78;5051541;28;20028;-62
2023/01/06 00:34:15;;;;;;;83.33;26.73;;;;;;;-145.18;100.00;60484.78;5051760;28;20096;-62
2023/01/06 00:36:40;;;;;;;76.10;26.70;;;;;;;-145.18;100.00;60484.78;5051859;28;20033;-61
2023/01/06 00:39:06;;;;;;;69.30;25.27;;;;;;;-145.18;100.00;60484.78;5049605;28;20049;-62
2023/01/06 00:44:15;;;;;;;68.50;24.87;;;;;;;-145.18;100.00;60484.78;5051523;28;20472;-62
2023/01/06 00:46:40;;;;;;;65.10;26.43;;;;;;;-145.18;100.00;60484.78;5051328;28;20033;-62
2023/01/06 00:49:06;;;;;;;66.63;24.50;;;;;;;-145.18;100.00;60484.78;5050724;28;20083;-62
2023/01/06 00:51:33;;;;;;;57.27;22.07;;;;;;;-145.18;100.00;60484.78;5051675;28;20431;-61
2023/01/06 00:54:00;;;;;;;56.60;22.77;;;;;;;-145.18;100.00;60484.78;5049551;28;20104;-61
2023/01/06 00:56:25;;;;;;;58.10;22.67;;;;;;;-145.18;100.00;60484.78;5053548;28;20089;-62
2023/01/06 00:58:50;;;;;;;61.63;23.90;;;;;;;-145.18;100.00;60484.78;5055390;28;20465;-62
2023/01/06 01:01:16;;;;;;;56.70;22.13;;;;;;;-145.18;100.00;60484.78;5052349;28;20488;-62
2023/01/06 01:03:41;;;;;;;56.37;22.40;;;;;;;-145.18;100.00;60484.78;5055007;28;20064;-61
2023/01/06 01:06:08;;;;;;;57.30;22.43;;;;;;;-145.18;100.00;60484.78;5055194;28;20041;-61
2023/01/06 01:08:34;;;;;;;51.90;21.27;;;;;;;-145.18;100.00;60484.78;5053148;28;20104;-61
2023/01/06 01:11:05;;;;;;;45.53;20.17;;;;;;;-145.18;100.00;60484.78;5055267;28;20128;-62
2023/01/06 01:13:31;;;;;;;47.05;19.40;;;;;;;-145.18;100.00;60484.78;5055361;28;20033;-62
2023/01/06 01:16:05;;;;;;;49.37;20.37;;;;;;;-145.18;100.00;60484.78;5055079;28;20095;-62
2023/01/06 01:18:31;;;;;;;35.60;14.50;;;;;;;-145.18;100.00;60484.78;5054085;28;20481;-63
2023/01/06 01:20:57;;;;;;;40.70;16.37;;;;;;;-145.18;100.00;60484.78;5054079;28;20036;-62
2023/01/06 01:23:22;;;;;;;39.23;17.57;;;;;;;-145.18;100.00;60484.78;5053007;28;20350;-63
2023/01/06 01:25:48;;;;;;;52.93;21.30;;;;;;;-145.18;100.00;60484.78;5054916;28;20037;-62
2023/01/06 01:28:13;;;;;;;58.90;22.70;;;;;;;-145.18;100.00;60484.78;5053821;28;20035;-62
2023/01/06 01:30:38;;;;;;;56.23;22.53;;;;;;;-145.18;100.00;60484.78;5054964;28;20513;-62
2023/01/06 01:33:04;;;;;;;57.27;22.27;;;;;;;-145.18;100.00;60484.78;5054994;28;20021;-62
2023/01/06 01:35:29;;;;;;;57.93;22.97;;;;;;;-145.18;100.00;60484.78;5054626;28;20033;-63
2023/01/06 01:37:54;;;;;;;61.10;21.33;;;;;;;-145.18;100.00;60484.78;5053893;28;20111;-62
2023/01/06 01:40:20;;;;;;;63.97;22.63;;;;;;;-145.18;100.00;60484.78;5054824;28;20025;-62
2023/01/06 01:42:45;;;;;;;59.70;22.50;;;;;;;-145.18;100.00;60484.78;5054443;28;20373;-62
2023/01/06 01:45:23;;;;;;;56.90;21.03;;;;;;;-145.18;100.00;60484.78;5054234;28;20021;-64
2023/01/06 01:47:54;;;;;;;51.10;21.10;;;;;;;-145.18;100.00;60484.78;5054775;28;20024;-62
2023/01/06 01:50:32;;;;;;;52.25;20.67;;;;;;;-145.18;100.00;60484.78;5053547;28;20028;-62
2023/01/06 01:53:06;;;;;;;49.67;20.47;;;;;;;-145.18;100.00;60484.78;5051304;28;20548;-63
2023/01/06 01:55:34;;;;;;;50.10;20.33;;;;;;;-145.18;100.00;60484.78;5054655;28;20484;-62
2023/01/06 01:58:11;;;;;;;46.47;18.93;;;;;;;-145.18;100.00;60484.78;5054485;28;20017;-62
2023/01/06 02:00:38;;;;;;;46.87;19.37;;;;;;;-145.18;100.00;60484.78;5053282;28;20040;-62
2023/01/06 02:03:04;;;;;;;38.70;15.70;;;;;;;-145.18;100.00;60484.78;5064689;22;20071;-67
2023/01/06 02:05:31;;;;;;;35.93;16.77;;;;;;;-145.18;100.00;60484.78;5035524;28;20045;-68
2023/01/06 02:08:01;;;;;;;36.83;16.63;;;;;;;-145.18;100.00;60484.78;5042240;28;20035;-68
2023/01/06 02:10:26;;;;;;;37.17;16.50;;;;;;;-145.18;100.00;60484.78;5054209;28;20037;-68
2023/01/06 02:12:56;;;;;;;34.07;15.30;;;;;;;-145.18;100.00;60484.78;5053393;28;20389;-68
2023/01/06 02:15:28;;;;;;;36.87;16.30;;;;;;;-145.18;100.00;60484.78;5053918;28;20051;-68
2023/01/06 02:17:53;;;;;;;;;;;;;;;-145.18;100.00;60484.78;5054282;28;20040;-69
2023/01/06 02:20:37;;;;;;;29.77;13.63;;;;;;;-145.18;100.00;60484.78;5077631;22;20020;-92
2023/01/06 02:23:27;;;;;;;32.37;13.00;;;;;;;-145.18;100.00;60484.78;5049729;28;20029;-92
2023/01/06 02:26:07;;;;;;;28.30;12.63;;;;;;;-145.18;100.00;60484.78;5054409;28;20069;-92
2023/01/06 02:28:54;;;;;;;24.47;11.57;;;;;;;-145.18;100.00;60484.78;5048811;28;20061;-92
2023/01/06 02:31:40;;;;;;;26.03;12.47;;;;;;;-145.18;100.00;60484.78;5036779;28;20056;-91
2023/01/06 02:34:24;;;;;;;17.33;7.97;;;;;;;-145.18;100.00;60484.78;5036683;28;20452;-93
2023/01/06 02:37:04;;;;;;;21.63;9.80;;;;;;;-145.18;100.00;60484.78;5035463;28;20117;-92
2023/01/06 02:39:41;;;;;;;19.93;9.43;;;;;;;-145.18;100.00;60484.78;5051186;28;20043;-91
2023/01/06 02:42:20;;;;;;;19.97;9.73;;;;;;;-145.18;100.00;60484.78;5054855;28;20064;-92
2023/01/06 02:45:25;;;;;;;16.37;6.83;;;;;;;-145.18;100.00;60484.78;5036712;28;20028;-91
2023/01/06 02:48:02;;;;;;;18.83;8.83;;;;;;;-145.18;100.00;60484.78;5017480;28;20046;-92
2023/01/06 02:50:36;;;;;;;15.07;6.93;;;;;;;-145.18;100.00;60484.78;5036322;28;20028;-93
2023/01/06 02:53:17;;;;;;;18.00;8.97;;;;;;;-145.18;100.00;60484.78;5053134;28;20033;-91
2023/01/06 02:55:46;;;;;;;18.97;8.77;;;;;;;-145.18;100.00;60484.78;5017532;28;20104;-91
2023/01/06 02:58:28;;;;;;;15.93;7.97;;;;;;;-145.18;100.00;60484.78;5038081;28;20039;-92
2023/01/06 03:01:02;;;;;;;17.30;8.00;;;;;;;-145.18;100.00;60484.78;5054321;28;20036;-90
2023/01/06 03:03:31;;;;;;;16.70;8.73;;;;;;;-145.18;100.00;60484.78;5054297;28;20025;-92
2023/01/06 03:06:05;;;;;;;14.47;8.17;;;;;;;-145.18;100.00;60484.78;5054640;28;20083;-93
2023/01/06 03:08:31;;;;;;;14.83;7.97;;;;;;;-145.18;100.00;60484.78;5047424;28;20056;-91
2023/01/06 03:10:59;;;;;;;15.80;8.53;;;;;;;-145.18;100.00;60484.78;5043984;28;20061;-91
2023/01/06 03:13:41;;;;;;;14.37;8.67;;;;;;;-145.18;100.00;60484.78;5034292;28;20452;-90
2023/01/06 03:16:07;;;;;;;14.77;8.20;;;;;;;-145.18;100.00;60484.78;5034208;28;20556;-92
2023/01/06 03:18:34;;;;;;;16.63;9.10;;;;;;;-145.18;100.00;60484.78;5036469;28;20415;-91
2023/01/06 03:21:05;;;;;;;17.37;9.40;;;;;;;-145.18;100.00;60484.78;5054629;28;20082;-91
2023/01/06 03:23:32;;;;;;;17.43;9.13;;;;;;;-145.18;100.00;60484.78;5048529;28;20460;-91
2023/01/06 03:25:57;;;;;;;17.43;9.23;;;;;;;-145.18;100.00;60484.78;5017150;28;20026;-91
2023/01/06 03:28:23;;;;;;;18.60;9.90;;;;;;;-145.18;100.00;60484.78;5037461;28;20512;-92
2023/01/06 03:31:16;;;;;;;15.70;9.13;;;;;;;-145.18;100.00;60484.78;5034448;28;20452;-92
2023/01/06 03:34:02;;;;;;;17.13;9.47;;;;;;;-145.18;100.00;60484.78;5033660;28;20038;-92
2023/01/06 03:36:51;;;;;;;20.73;11.23;;;;;;;-145.18;100.00;60484.78;5016197;28;20542;-93
2023/01/06 03:39:29;;;;;;;21.50;11.20;;;;;;;-145.18;100.00;60484.78;5032598;28;20025;-92
2023/01/06 03:45:49;;;;;;;19.03;11.27;;;;;;;-145.18;100.00;60484.78;5030485;28;20087;-91
2023/01/06 03:48:41;;;;;;;24.13;12.77;;;;;;;-145.18;100.00;60484.78;5035197;28;20117;-92
2023/01/06 03:51:30;;;;;;;22.98;13.90;;;;;;;-145.18;100.00;60484.78;5017424;28;20063;-92
2023/01/06 03:54:08;;;;;;;22.73;13.43;;;;;;;-145.18;100.00;60484.78;5020154;28;20057;-92
2023/01/06 03:56:41;;;;;;;22.53;12.60;;;;;;;-145.18;100.00;60484.78;5035676;28;20356;-92
2023/01/06 03:59:12;;;;;;;24.07;13.40;;;;;;;-145.18;100.00;60484.78;5028045;28;20028;-92
2023/01/06 04:01:42;;;;;;;23.38;13.10;;;;;;;-145.18;100.00;60484.78;5050257;28;20025;-89
2023/01/06 04:04:08;;;;;;;20.87;13.27;;;;;;;-145.18;100.00;60484.78;5032994;28;20030;-88
2023/01/06 04:06:34;;;;;;;23.77;13.90;;;;;;;-145.18;100.00;60484.78;5033191;28;20082;-88
2023/01/06 04:08:59;;;;;;;25.50;12.90;;;;;;;-145.18;100.00;60484.78;5030968;28;20419;-87
2023/01/06 04:14:09;;;;;;;25.67;13.33;;;;;;;-145.18;100.00;60484.78;5032959;28;20078;-89
2023/01/06 04:16:34;;;;;;;19.70;10.67;;;;;;;-145.18;100.00;60484.78;5033566;28;20041;-89
2023/01/06 04:18:59;;;;;;;19.33;11.20;;;;;;;-145.18;100.00;60484.78;5031171;28;20174;-89
2023/01/06 04:21:25;;;;;;;22.53;11.97;;;;;;;-145.18;100.00;60484.78;5014552;28;20029;-90
2023/01/06 04:23:50;;;;;;;19.50;11.27;;;;;;;-145.18;100.00;60484.78;5032146;28;20037;-89
2023/01/06 04:26:16;;;;;;;18.57;10.63;;;;;;;-145.18;100.00;60484.78;5038878;28;20016;-89
2023/01/06 04:28:41;;;;;;;19.70;11.13;;;;;;;-145.18;100.00;60484.78;5050249;28;20024;-89
2023/01/06 04:31:08;;;;;;;17.90;10.57;;;;;;;-145.18;100.00;60484.78;5032774;28;20491;-89
2023/01/06 04:33:34;;;;;;;14.93;9.97;;;;;;;-145.18;100.00;60484.78;5032765;28;20026;-89
2023/01/06 04:35:59;;;;;;;16.23;9.50;;;;;;;-145.18;100.00;60484.78;5035652;28;20364;-89
2023/01/06 04:38:25;;;;;;;18.27;9.10;;;;;;;-145.18;100.00;60484.78;5043708;28;20029;-88
2023/01/06 04:40:50;;;;;;;11.87;7.20;;;;;;;-145.18;100.00;60484.78;5032731;28;20420;-89
2023/01/06 04:43:16;;;;;;;16.03;7.67;;;;;;;-145.18;100.00;60484.78;5033008;28;20045;-87
2023/01/06 04:45:43;;;;;;;16.73;8.77;;;;;;;-145.18;100.00;60484.78;5033171;28;20365;-89
2023/01/06 04:48:09;;;;;;;12.20;6.93;;;;;;;-145.18;100.00;60484.78;5052700;28;20037;-88
2023/01/06 04:50:36;;;;;;;14.83;7.93;;;;;;;-145.18;100.00;60484.78;5053769;28;20025;-89
2023/01/06 04:53:01;;;;;;;20.17;8.67;;;;;;;-145.18;100.00;60484.78;5049762;28;20021;-90
2023/01/06 04:55:27;;;;;;;13.30;7.20;;;;;;;-145.18;100.00;60484.78;5035133;28;20028;-89
2023/01/06 04:57:53;;;;;;;16.00;7.90;;;;;;;-145.18;100.00;60484.78;5035007;28;20156;-90
2023/01/06 05:00:19;;;;;;;10.90;6.93;;;;;;;-145.18;100.00;60484.78;5075424;28;20013;-91
2023/01/06 05:02:45;;;;;;;14.07;7.30;;;;;;;-145.18;100.00;60484.78;5058788;28;20016;-91
2023/01/06 05:05:11;;;;;;;12.17;7.33;;;;;;;-145.18;100.00;60484.78;5057146;28;20077;-91
2023/01/06 05:07:37;;;;;;;11.10;6.97;;;;;;;-145.18;100.00;60484.78;5056804;28;20048;-91
2023/01/06 05:10:04;;;;;;;12.83;7.13;;;;;;;-145.18;100.00;60484.78;5056357;28;20047;-91
2023/01/06 05:12:31;;;;;;;11.77;7.07;;;;;;;-145.18;100.00;60484.78;5040166;28;20018;-90
2023/01/06 05:14:56;;;;;;;11.77;7.10;;;;;;;-145.18;100.00;60484.78;5057444;28;20017;-91
2023/01/06 05:17:21;;;;;;;12.20;6.33;;;;;;;-145.18;100.00;60484.78;5077013;28;20017;-90
2023/01/06 05:19:47;;;;;;;10.17;5.27;;;;;;;-145.18;100.00;60484.78;5077264;28;20447;-91
2023/01/06 05:22:12;;;;;;;9.40;4.53;;;;;;;-145.18;100.00;60484.78;5077067;28;20053;-91
2023/01/06 05:24:38;;;;;;;13.80;5.97;;;;;;;-145.18;100.00;60484.78;5059799;28;20010;-91
2023/01/06 05:27:03;;;;;;;8.70;3.97;;;;;;;-145.18;100.00;60484.78;5057059;28;20033;-90
2023/01/06 05:29:29;;;;;;;8.10;4.27;;;;;;;-145.18;100.00;60484.78;5057247;28;20068;-91
2023/01/06 05:31:54;;;;;;;9.50;5.67;;;;;;;-145.18;100.00;60484.78;5040391;28;20013;-91
2023/01/06 05:34:20;;;;;;;10.23;5.53;;;;;;;-145.18;100.00;60484.78;5056639;28;20013;-92
2023/01/06 05:36:45;;;;;;;8.80;4.97;;;;;;;-145.18;100.00;60484.78;5057205;28;20021;-93
2023/01/06 05:39:12;;;;;;;11.67;6.70;;;;;;;-145.18;100.00;60484.78;5056522;28;20013;-93
2023/01/06 05:41:37;;;;;;;9.43;5.83;;;;;;;-145.18;100.00;60484.78;5057736;28;20009;-92
2023/01/06 05:44:03;;;;;;;11.70;5.33;;;;;;;-145.18;100.00;60484.78;5060450;28;20069;-91
2023/01/06 05:46:28;;;;;;;10.20;5.40;;;;;;;-145.18;100.00;60484.78;5060804;28;20018;-92
2023/01/06 05:48:54;;;;;;;9.60;4.70;;;;;;;-145.18;100.00;60484.78;5043318;28;20072;-92
2023/01/06 05:51:19;;;;;;;8.00;4.43;;;;;;;-145.18;100.00;60484.78;5060585;28;20032;-92
2023/01/06 05:53:46;;;;;;;6.67;3.90;;;;;;;-145.18;100.00;60484.78;5063642;28;20017;-92
2023/01/06 05:56:15;;;;;;;6.70;3.97;;;;;;;-145.18;100.00;60484.78;5080598;28;20021;-93
2023/01/06 05:58:43;;;;;;;9.50;4.67;;;;;;;-145.18;100.00;60484.78;5080179;28;20069;-92
2023/01/06 06:01:19;;;;;;;8.77;4.60;;;;;;;-145.18;100.00;60484.78;5075603;28;20045;-92
2023/01/06 06:03:45;;;;;;;7.13;3.73;;;;;;;-145.18;100.00;60484.78;5080137;28;20028;-92
2023/01/06 06:06:11;;;;;;;5.20;3.27;;;;;;;-145.18;100.00;60484.78;5080114;28;20048;-92
2023/01/06 06:08:37;;;;;;;7.73;4.30;;;;;;;-145.18;100.00;60484.78;5076772;28;20036;-92
2023/01/06 06:11:07;;;;;;;9.60;3.87;;;;;;;-145.18;100.00;60484.78;5063115;28;20138;-92
2023/01/06 06:13:32;;;;;;;8.87;3.37;;;;;;;-145.18;100.00;60484.78;5080104;28;20017;-92
2023/01/06 06:16:09;;;;;;;8.47;3.30;;;;;;;-145.18;100.00;60484.78;5080046;28;20056;-91
2023/01/06 06:18:42;;;;;;;8.37;3.23;;;;;;;-145.18;100.00;60484.78;5079321;28;20026;-91
2023/01/06 06:21:14;;;;;;;7.13;2.83;;;;;;;-145.18;100.00;60484.78;5080147;28;20013;-92
2023/01/06 06:23:40;;;;;;;7.85;3.15;;;;;;;-145.18;100.00;60484.78;5075306;28;20030;-93
2023/01/06 06:26:06;;;;;;;6.20;2.40;;;;;;;-145.18;100.00;60484.78;5042576;28;20089;-92
2023/01/06 06:28:33;;;;;;;7.10;2.97;;;;;;;-145.18;100.00;60484.78;5043235;28;20057;-91
2023/01/06 06:31:09;;;;;;;5.27;2.77;;;;;;;-145.18;100.00;60484.78;5015355;28;20036;-90
2023/01/06 06:33:34;;;;;;;5.20;2.23;;;;;;;-145.18;100.00;60484.78;5017323;28;20481;-91
2023/01/06 06:36:00;;;;;;;5.03;2.40;;;;;;;-145.18;100.00;60484.78;5015791;28;20053;-89
2023/01/06 06:38:26;;;;;;;5.43;2.50;;;;;;;-145.18;100.00;60484.78;5016616;28;20038;-89
2023/01/06 06:40:51;;;;;;;7.37;2.40;;;;;;;-145.18;100.00;60484.78;5053485;28;20029;-89
2023/01/06 06:43:17;;;;;;;4.50;2.50;;;;;;;-145.18;100.00;60484.78;5055854;28;20052;-89
2023/01/06 06:45:47;;;;;;;5.50;1.93;;;;;;;-145.18;100.00;60484.78;5055966;28;20500;-89
2023/01/06 06:48:13;;;;;;;4.83;2.10;;;;;;;-145.18;100.00;60484.78;5055455;28;20045;-89
2023/01/06 06:50:39;;;;;;;5.60;2.30;;;;;;;-145.18;100.00;60484.78;5052404;28;20819;-89
2023/01/06 06:53:05;;;;;;;4.17;2.00;;;;;;;-145.18;100.00;60484.78;5017614;28;20389;-89
2023/01/06 06:55:32;;;;;;;8.97;2.07;;;;;;;-145.18;100.00;60484.78;5034952;28;20072;-90
2023/01/06 06:57:57;;;;;;;5.17;2.00;;;;;;;-145.18;100.00;60484.78;5035106;28;20469;-90
2023/01/06 07:00:23;;;;;;;6.47;2.07;;;;;;;-145.18;100.00;60484.78;5034099;28;20033;-89
2023/01/06 07:02:49;;;;;;;6.33;2.00;;;;;;;-145.18;100.00;60484.78;5033897;28;20061;-89
2023/01/06 07:05:15;;;;;;;3.57;2.07;;;;;;;-145.18;100.00;60484.78;5035007;28;20025;-90
2023/01/06 07:07:41;;;;;;;4.43;1.90;;;;;;;-145.18;100.00;60484.78;5034719;28;20029;-89
2023/01/06 07:10:07;;;;;;;5.67;1.97;;;;;;;-145.18;100.00;60484.78;5042080;28;20580;-89
2023/01/06 07:12:32;;;;;;;3.30;1.53;;;;;;;-145.18;100.00;60484.78;5054782;28;20031;-89
2023/01/06 07:14:58;;;;;;;4.17;1.83;;;;;;;-145.18;100.00;60484.78;5047955;28;20108;-90
2023/01/06 07:17:27;;;;;;;6.67;2.03;;;;;;;-145.18;100.00;60484.78;5042650;28;20025;-91
2023/01/06 07:19:53;;;;;;;3.53;1.87;;;;;;;-145.18;100.00;60484.78;5034955;28;20430;-91
2023/01/06 07:22:18;;;;;;;7.43;1.87;;;;;;;-145.18;100.00;60484.78;5039968;28;20125;-90
2023/01/06 07:24:44;;;;;;;3.57;1.67;;;;;;;-145.18;100.00;60484.78;5030118;28;20028;-89
2023/01/06 07:27:09;;;;;;;4.70;1.50;;;;;;;-145.18;100.00;60484.78;5035315;28;20030;-88
2023/01/06 07:29:36;;;;;;;6.00;1.90;;;;;;;-145.18;100.00;60484.78;5034541;28;20017;-89
2023/01/06 07:32:02;;;;;;;7.43;1.90;;;;;;;-145.18;100.00;60484.78;5038670;28;20024;-89
2023/01/06 07:34:27;;;;;;;4.30;2.00;;;;;;;-145.18;100.00;60484.78;5055060;28;20025;-90
2023/01/06 07:36:52;;;;;;;5.57;2.13;;;;;;;-145.18;100.00;60484.78;5054575;28;20029;-89
2023/01/06 07:39:18;;;;;;;7.30;1.80;;;;;;;-145.18;100.00;60484.78;5053397;28;20021;-91
2023/01/06 07:41:43;;;;;;;5.87;2.37;;;;;;;-145.18;100.00;60484.78;5050406;28;20060;-90
2023/01/06 07:44:10;;;;;;;5.27;2.30;;;;;;;-145.18;100.00;60484.78;5033631;28;20031;-90
2023/01/06 07:46:35;;;;;;;7.43;2.40;;;;;;;-145.18;100.00;60484.78;5016810;28;20027;-89
2023/01/06 07:49:00;;;;;;;6.60;2.60;;;;;;;-145.18;100.00;60484.78;5034306;28;20029;-89
2023/01/06 07:51:26;;;;;;;5.20;2.07;;;;;;;-145.18;100.00;60484.78;5033955;28;20017;-91
2023/01/06 07:53:51;;;;;;;6.40;2.20;;;;;;;-145.18;100.00;60484.78;5015664;28;20365;-89
2023/01/06 07:56:17;;;;;;;5.43;2.33;;;;;;;-145.18;100.00;60484.78;5032336;28;20496;-89
2023/01/06 07:58:42;;;;;;;6.37;2.43;;;;;;;-145.18;100.00;60484.78;5033358;28;20124;-89
2023/01/06 08:01:08;;;;;;;8.00;2.67;;;;;;;-145.18;100.00;60484.78;5033931;28;20025;-90
2023/01/06 08:03:33;;;;;;;6.97;2.60;;;;;;;-145.18;100.00;60484.78;5033898;28;20030;-89
2023/01/06 08:06:08;;;;;;;7.90;3.10;;;;;;;-145.18;100.00;60484.78;5048517;28;20029;-89
2023/01/06 08:08:38;;;;;;;7.17;2.73;;;;;;;-145.18;100.00;60484.78;5053721;28;20357;-89
2023/01/06 08:11:06;;;;;;;4.70;2.17;;;;;;;-145.18;100.00;60484.78;5048245;28;20433;-89
2023/01/06 08:13:32;;;;;;;6.20;2.23;;;;;;;-145.18;100.00;60484.78;5054158;28;20094;-89
2023/01/06 08:15:59;;;;;;;11.37;3.43;;;;;;;-145.18;100.00;60484.78;5050232;28;20491;-90
2023/01/06 08:18:24;;;;;;;6.93;2.60;;;;;;;-145.18;100.00;60484.78;5053372;28;20383;-89
2023/01/06 08:20:50;;;;;;;6.73;2.40;;;;;;;-145.18;100.00;60484.78;5053244;28;20029;-90
2023/01/06 08:23:15;;;;;;;4.93;2.67;;;;;;;-145.18;100.00;60484.78;5052954;28;20116;-90
2023/01/06 08:25:41;;;;;;;7.20;2.93;;;;;;;-145.18;100.00;60484.78;5031523;28;20091;-90
2023/01/06 08:28:06;;;;;;;5.30;3.00;;;;;;;-145.18;100.00;60484.78;5053196;28;20033;-90
2023/01/06 08:30:38;;;;;;;5.53;2.70;;;;;;;-145.18;100.00;60484.78;5018005;28;20496;-89
2023/01/06 08:33:04;;;;;;;7.53;3.40;;;;;;;-145.18;100.00;60484.78;5033839;28;20096;-88
2023/01/06 08:35:29;;;;;;;6.23;2.33;;;;;;;-145.18;100.00;60484.78;5033812;28;20478;-89
2023/01/06 08:37:55;;;;;;;5.27;2.73;;;;;;;-145.18;100.00;60484.78;5035011;28;20123;-89
2023/01/06 08:40:20;;;;;;;6.10;2.63;;;;;;;-145.18;100.00;60484.78;5015664;28;20111;-90
2023/01/06 08:42:46;;;;;;;5.87;3.43;;;;;;;-145.18;100.00;60484.78;5041380;28;20495;-89
2023/01/06 08:45:11;;;;;;;6.87;3.17;;;;;;;-145.18;100.00;60484.78;5044648;28;20029;-90
2023/01/06 08:47:37;;;;;;;7.87;3.20;;;;;;;-145.18;100.00;60484.78;5014230;28;20025;-90
2023/01/06 08:50:03;;;;;;;8.47;3.60;;;;;;;-145.18;100.00;60484.78;5032646;28;20044;-89
2023/01/06 08:52:29;;;;;;;6.73;3.90;;;;;;;-145.18;100.00;60484.78;5033183;28;20503;-89
2023/01/06 08:54:54;;;;;;;6.13;3.37;;;;;;;-145.18;100.00;60484.78;5033115;28;20072;-90
2023/01/06 08:57:19;;;;;;;8.03;3.90;;;;;;;-145.18;100.00;60484.78;5007011;28;20034;-90
2023/01/06 08:59:45;;;;;;;6.70;3.70;;;;;;;-145.18;100.00;60484.78;5013385;28;20025;-90
2023/01/06 09:02:10;;;;;;;8.53;4.20;;;;;;;-145.18;100.00;60484.78;5012909;28;20466;-90
2023/01/06 09:04:36;;;;;;;9.77;4.03;;;;;;;-145.18;100.00;60484.78;5012681;28;20116;-89
2023/01/06 09:07:01;;;;;;;8.63;4.73;;;;;;;-145.18;100.00;60484.78;5037094;28;20039;-89
2023/01/06 09:09:27;;;;;;;10.87;4.50;;;;;;;-145.18;100.00;60484.78;5053833;28;20050;-89
2023/01/06 09:11:52;;;;;;;8.13;4.00;;;;;;;-145.18;100.00;60484.78;5042713;28;20064;-90
2023/01/06 09:14:17;;;;;;;7.60;4.60;;;;;;;-145.18;100.00;60484.78;5033468;28;20026;-89
2023/01/06 09:16:43;;;;;;;9.33;4.70;;;;;;;-145.18;100.00;60484.78;5038539;28;20096;-89
2023/01/06 09:19:09;;;;;;;9.10;4.50;;;;;;;-145.18;100.00;60484.78;5054255;28;20379;-89
2023/01/06 09:21:35;;;;;;;7.13;3.70;;;;;;;-145.18;100.00;60484.78;5043125;28;20449;-90
2023/01/06 09:24:00;;;;;;;7.17;4.17;;;;;;;-145.18;100.00;60484.78;5017707;28;20025;-88
2023/01/06 09:26:26;;;;;;;8.00;3.73;;;;;;;-145.18;100.00;60484.78;5034497;28;20025;-89
2023/01/06 09:28:51;;;;;;;5.70;3.60;;;;;;;-145.18;100.00;60484.78;5035975;28;20025;-90
2023/01/06 09:31:17;;;;;;;6.67;3.80;;;;;;;-145.18;100.00;60484.78;5038030;28;20052;-90
2023/01/06 09:33:42;;;;;;;6.53;3.90;;;;;;;-145.18;100.00;60484.78;5044533;28;20037;-89
2023/01/06 09:36:08;;;;;;;7.63;4.10;;;;;;;-145.18;100.00;60484.78;5035428;28;20477;-90
2023/01/06 09:38:33;;;;;;;7.00;2.93;;;;;;;-145.18;100.00;60484.78;5038093;28;20035;-89
2023/01/06 09:41:14;;;;;;;6.77;4.07;;;;;;;-145.18;100.00;60484.78;5056001;28;20037;-89
2023/01/06 09:43:46;;;;;;;7.77;3.60;;;;;;;-145.18;100.00;60484.78;5035035;28;20033;-89
2023/01/06 09:46:13;;;;;;;;;;;;;;;-145.18;100.00;60484.78;5035828;28;20112;-89
2023/01/06 09:48:45;;;;;;;6.17;3.20;;;;;;;-145.18;100.00;60484.78;5034653;28;19917;-89
2023/01/06 09:51:16;;;;;;;5.22;2.90;;;;;;;-145.18;100.00;60484.78;5035917;28;20033;-89
2023/01/06 09:53:48;;;;;;;5.15;2.50;;;;;;;-145.18;100.00;60484.78;5035411;28;20132;-89
2023/01/06 09:56:16;;;;;;;5.47;3.30;;;;;;;-145.18;100.00;60484.78;5034452;28;20053;-90
2023/01/06 09:58:52;;;;;;;4.10;2.27;;;;;;;-145.18;100.00;60484.78;5016615;28;20025;-89
2023/01/06 10:01:26;;;;;;;14.43;3.10;;;;;;;-145.18;100.00;60484.78;5037172;28;20029;-89
2023/01/06 10:03:52;;;;;;;4.93;2.30;;;;;;;-145.18;100.00;60484.78;5038758;28;20144;-90
2023/01/06 10:06:36;;;;;;;5.03;2.50;;;;;;;-145.18;100.00;60484.78;5041410;28;20033;-89
2023/01/06 10:09:14;;;;;;;5.43;2.30;;;;;;;-145.18;100.00;60484.78;5015155;28;20165;-90
2023/01/06 10:11:51;;;;;;;5.43;2.60;;;;;;;-145.18;100.00;60484.78;5014501;28;20041;-89
2023/01/06 10:14:38;;;;;;;4.07;1.90;;;;;;;-145.18;100.00;60484.78;5015842;28;20083;-88
2023/01/06 10:17:16;;;;;;;5.07;2.60;;;;;;;-145.18;100.00;60484.78;5022727;28;20033;-89
2023/01/06 10:20:03;;;;;;;5.33;2.47;;;;;;;-145.18;100.00;60484.78;5029568;28;20033;-89
2023/01/06 10:22:52;;;;;;;5.13;2.90;;;;;;;-145.18;100.00;60484.78;5033716;28;20157;-89
2023/01/06 10:25:20;;;;;;;4.37;2.53;;;;;;;-145.18;100.00;60484.78;5028931;28;20040;-88
2023/01/06 10:28:20;;;;;;;5.47;2.90;;;;;;;-145.18;100.00;60484.78;5036311;28;20233;-88
2023/01/06 10:30:54;;;;;;;6.47;2.47;;;;;;;-145.18;100.00;60484.78;5030070;28;20041;-88
2023/01/06 10:33:39;;;;;;;6.70;2.50;;;;;;;-145.18;100.00;60484.78;5016843;28;20513;-88
2023/01/06 10:36:11;;;;;;;4.73;2.30;;;;;;;-145.18;100.00;60484.78;5046327;28;20094;-88
2023/01/06 10:38:42;;;;;;;6.40;2.87;;;;;;;-145.18;100.00;60484.78;5028910;28;20535;-88
2023/01/06 10:41:18;;;;;;;4.13;1.90;;;;;;;-145.18;100.00;60484.78;5025785;28;20029;-89
2023/01/06 10:43:44;;;;;;;3.20;1.83;;;;;;;-145.18;100.00;60484.78;5035065;28;20037;-89
2023/01/06 10:46:09;;;;;;;4.20;1.83;;;;;;;-145.18;100.00;60484.78;5034272;28;20083;-88
2023/01/06 10:48:37;;;;;;;4.60;2.00;;;;;;;-145.18;100.00;60484.78;5033770;28;20037;-89
2023/01/06 10:51:30;;;;;;;4.30;2.00;;;;;;;-145.18;100.00;60484.78;5039157;28;20036;-90
2023/01/06 10:53:59;;;;;;;4.63;2.07;;;;;;;-145.18;100.00;60484.78;5034496;28;20014;-89
2023/01/06 10:56:28;;;;;;;5.07;1.83;;;;;;;-145.18;100.00;60484.78;5038870;28;20024;-88
2023/01/06 10:58:58;;;;;;;4.47;1.50;;;;;;;-145.18;100.00;60484.78;5043686;28;20377;-89
2023/01/06 11:01:26;;;;;;;3.63;1.90;;;;;;;-145.18;100.00;60484.78;5033320;28;20116;-89
2023/01/06 11:04:10;;;;;;;3.93;1.50;;;;;;;-145.18;100.00;60484.78;5023682;28;20029;-91
2023/01/06 11:06:39;;;;;;;5.43;1.60;;;;;;;-145.18;100.00;60484.78;5034274;28;20036;-89
2023/01/06 11:09:08;;;;;;;6.13;1.87;;;;;;;-145.18;100.00;60484.78;5034097;28;20453;-89
2023/01/06 11:11:46;;;;;;;7.00;1.90;;;;;;;-145.18;100.00;60484.78;5033221;28;20037;-90
2023/01/06 11:14:19;;;;;;;5.83;2.00;;;;;;;-145.18;100.00;60484.78;5031909;28;20031;-88
2023/01/06 11:17:02;;;;;;;4.00;1.50;;;;;;;-145.18;100.00;60484.78;5033812;28;20032;-89
2023/01/06 11:19:36;;;;;;;6.17;2.17;;;;;;;-145.18;100.00;60484.78;5030268;28;20112;-90
2023/01/06 11:22:02;;;;;;;6.43;2.10;;;;;;;-145.18;100.00;60484.78;5032774;28;20361;-88